Time;durP1;ratioP1;P1;durP2;ratioP2;P2;SDS_P1;SDS_P2;PMS_P1;PMS_P2;Temp;Humidity;BMP_temperature;BMP_pressure;BME280_temperature;BME280_humidity;BME280_pressure;Samples;Min_cycle;Max_cycle;Signal;HPM_P1;HPM_P2
2022/09/22 00:01:00;;;;;;;;;;;8.30;99.90;;;;;;4912059;29;19923;-73
2022/09/22 00:03:37;;;;;;;;;;;8.20;99.90;;;;;;4912177;29;19912;-73
2022/09/22 00:06:04;;;;;;;;;;;8.20;99.90;;;;;;4911739;29;19911;-73
2022/09/22 00:08:31;;;;;;;;;;;8.20;99.90;;;;;;4912698;29;19975;-73
2022/09/22 00:11:00;;;;;;;;;;;8.20;99.90;;;;;;4911492;29;19919;-73
2022/09/22 00:13:26;;;;;;;;;;;8.20;99.90;;;;;;4892366;29;20277;-73
2022/09/22 00:15:52;;;;;;;;;;;8.10;99.90;;;;;;4908913;29;19912;-72
2022/09/22 00:18:18;;;;;;;;;;;8.10;99.90;;;;;;4892649;29;19915;-72
2022/09/22 00:20:43;;;;;;;;;;;8.10;99.90;;;;;;4893840;29;19915;-72
2022/09/22 00:23:09;;;;;;;;;;;8.10;99.90;;;;;;4894119;29;19943;-72
2022/09/22 00:25:38;;;;;;;;;;;8.10;99.90;;;;;;4908806;29;19919;-72
2022/09/22 00:28:04;;;;;;;;;;;8.00;99.90;;;;;;4892652;29;19959;-73
2022/09/22 00:30:30;;;;;;;;;;;8.00;99.90;;;;;;4893848;29;19943;-73
2022/09/22 00:32:55;;;;;;;;;;;8.00;99.90;;;;;;4908401;29;20242;-73
2022/09/22 00:35:21;;;;;;;;;;;8.00;99.90;;;;;;4908452;29;20182;-72
2022/09/22 00:37:47;;;;;;;;;;;8.00;99.90;;;;;;4892861;29;19983;-72
2022/09/22 00:40:12;;;;;;;;;;;7.90;99.90;;;;;;4892530;29;19916;-72
2022/09/22 00:42:38;;;;;;;;;;;7.90;99.90;;;;;;4894718;29;19911;-73
2022/09/22 00:45:05;;;;;;;;;;;7.90;99.90;;;;;;4911958;29;19918;-73
2022/09/22 00:47:36;;;;;;;;;;;7.90;99.90;;;;;;4911639;29;20114;-73
2022/09/22 00:50:07;;;;;;;;;;;7.80;99.90;;;;;;4911780;29;19915;-73
2022/09/22 00:52:38;;;;;;;;;;;7.80;99.90;;;;;;4911741;29;19919;-72
2022/09/22 00:55:07;;;;;;;;;;;7.80;99.90;;;;;;4912853;29;19911;-72
2022/09/22 00:57:34;;;;;;;;;;;7.70;99.90;;;;;;4894519;29;19912;-72
2022/09/22 01:00:00;;;;;;;;;;;7.80;99.90;;;;;;4895165;29;20080;-72
2022/09/22 01:02:26;;;;;;;;;;;7.70;99.90;;;;;;4895484;29;20197;-73
2022/09/22 01:04:52;;;;;;;;;;;7.70;99.90;;;;;;4910545;29;19912;-73
2022/09/22 01:07:19;;;;;;;;;;;7.70;99.90;;;;;;4911555;29;19919;-73
2022/09/22 01:09:44;;;;;;;;;;;7.60;99.90;;;;;;4895143;29;19911;-72
2022/09/22 01:12:11;;;;;;;;;;;7.60;99.90;;;;;;4906483;29;19912;-72
2022/09/22 01:15:02;;;;;;;;;;;7.60;99.90;;;;;;4892820;29;19916;-72
2022/09/22 01:17:48;;;;;;;;;;;7.50;99.90;;;;;;4892504;29;19959;-73
2022/09/22 01:20:24;;;;;;;;;;;7.50;99.90;;;;;;4891899;29;19959;-72
2022/09/22 01:23:05;;;;;;;;;;;7.50;99.90;;;;;;4892854;29;20031;-72
2022/09/22 01:26:08;;;;;;;;;;;7.40;99.90;;;;;;4892632;29;19912;-72
2022/09/22 01:28:56;;;;;;;;;;;7.50;99.90;;;;;;4892330;29;19911;-73
2022/09/22 01:31:36;;;;;;;;;;;7.40;99.90;;;;;;4891328;29;19918;-72
2022/09/22 01:34:14;;;;;;;;;;;7.40;99.90;;;;;;4891456;29;19939;-73
2022/09/22 01:37:02;;;;;;;;;;;7.40;99.90;;;;;;4890966;29;20233;-73
2022/09/22 01:39:48;;;;;;;;;;;7.30;99.90;;;;;;4891400;29;19912;-73
2022/09/22 01:42:23;;;;;;;;;;;7.30;99.90;;;;;;4897762;29;19916;-73
2022/09/22 01:44:52;;;;;;;;;;;7.30;99.90;;;;;;4894669;29;19919;-72
2022/09/22 01:47:20;;;;;;;;;;;7.30;99.90;;;;;;4894194;29;20033;-73
2022/09/22 01:49:51;;;;;;;;;;;7.20;99.90;;;;;;4909661;29;19922;-72
2022/09/22 01:52:29;;;;;;;;;;;7.20;99.90;;;;;;4893979;29;19985;-72
2022/09/22 01:55:00;;;;;;;;;;;7.20;99.90;;;;;;4909743;29;19955;-72
2022/09/22 01:57:58;;;;;;;;;;;7.10;99.90;;;;;;4894187;29;19912;-73
2022/09/22 02:00:24;;;;;;;;;;;7.10;99.90;;;;;;4903699;29;19958;-72
2022/09/22 02:02:55;;;;;;;;;;;7.10;99.90;;;;;;4891983;29;19912;-72
2022/09/22 02:05:28;;;;;;;;;;;7.00;99.90;;;;;;4892238;29;19912;-73
2022/09/22 02:07:54;;;;;;;;;;;7.10;99.90;;;;;;4891125;29;19911;-73
2022/09/22 02:10:23;;;;;;;;;;;7.00;99.90;;;;;;4891787;29;20225;-72
2022/09/22 02:12:49;;;;;;;;;;;7.00;99.90;;;;;;4890630;29;19960;-73
2022/09/22 02:18:08;;;;;;;;;;;7.00;99.90;;;;;;4890381;29;20221;-73
2022/09/22 02:20:34;;;;;;;;;;;6.90;99.90;;;;;;4874793;29;19916;-73
2022/09/22 02:22:59;;;;;;;;;;;6.90;99.90;;;;;;4890563;29;19954;-73
2022/09/22 02:25:25;;;;;;;;;;;6.90;99.90;;;;;;4890570;29;20203;-73
2022/09/22 02:27:52;;;;;;;;;;;6.90;99.90;;;;;;4890077;29;19912;-72
2022/09/22 02:30:18;;;;;;;;;;;6.90;99.90;;;;;;4905838;29;19921;-72
2022/09/22 02:32:45;;;;;;;;;;;6.90;99.90;;;;;;4893779;29;19912;-73
2022/09/22 02:35:11;;;;;;;;;;;6.90;99.90;;;;;;4894012;29;19954;-72
2022/09/22 02:38:01;;;;;;;;;;;6.90;99.90;;;;;;4893741;29;19912;-72
2022/09/22 02:40:38;;;;;;;;;;;6.80;99.90;;;;;;4910107;29;19915;-72
2022/09/22 02:43:18;;;;;;;;;;;6.80;99.90;;;;;;4909633;29;20244;-72
2022/09/22 02:46:24;;;;;;;;;;;6.80;99.90;;;;;;4909615;29;19978;-74
2022/09/22 02:48:52;;;;;;;;;;;6.70;99.90;;;;;;4893228;29;19915;-73
2022/09/22 02:51:17;;;;;;;;;;;6.60;99.90;;;;;;4912641;23;20118;-73
2022/09/22 02:53:43;;;;;;;;;;;6.60;99.90;;;;;;4902641;29;19911;-74
2022/09/22 02:56:09;;;;;;;;;;;6.60;99.90;;;;;;4922047;29;19912;-74
2022/09/22 02:58:34;;;;;;;;;;;6.60;99.90;;;;;;4922251;29;19912;-74
2022/09/22 03:01:00;;;;;;;;;;;6.60;99.90;;;;;;4907566;29;19983;-74
2022/09/22 03:03:25;;;;;;;;;;;6.60;99.90;;;;;;4906508;29;19912;-75
2022/09/22 03:05:51;;;;;;;;;;;6.60;99.90;;;;;;4891663;29;19958;-74
2022/09/22 03:08:17;;;;;;;;;;;6.50;99.90;;;;;;4910019;29;19918;-74
2022/09/22 03:10:42;;;;;;;;;;;6.60;99.90;;;;;;4911320;29;19922;-74
2022/09/22 03:13:08;;;;;;;;;;;6.50;99.90;;;;;;4901827;29;19911;-74
2022/09/22 03:15:34;;;;;;;;;;;6.50;99.90;;;;;;4891378;29;20207;-74
2022/09/22 03:17:59;;;;;;;;;;;6.50;99.90;;;;;;4892044;29;20110;-74
2022/09/22 03:20:25;;;;;;;;;;;6.50;99.90;;;;;;4892168;29;20118;-74
2022/09/22 03:22:50;;;;;;;;;;;6.50;99.90;;;;;;4892246;29;19952;-74
2022/09/22 03:25:16;;;;;;;;;;;6.50;99.90;;;;;;4892220;29;19915;-74
2022/09/22 03:27:42;;;;;;;;;;;6.50;99.90;;;;;;4891795;29;19912;-74
2022/09/22 03:30:08;;;;;;;;;;;6.50;99.90;;;;;;4890986;29;19956;-74
2022/09/22 03:32:34;;;;;;;;;;;6.50;99.90;;;;;;4875595;29;19919;-74
2022/09/22 03:35:00;;;;;;;;;;;6.40;99.90;;;;;;4890969;29;19912;-74
2022/09/22 03:37:25;;;;;;;;;;;6.40;99.90;;;;;;4891664;29;19951;-74
2022/09/22 03:39:51;;;;;;;;;;;6.40;99.90;;;;;;4875342;29;19919;-74
2022/09/22 03:42:17;;;;;;;;;;;6.40;99.90;;;;;;4891895;29;19911;-74
2022/09/22 03:44:42;;;;;;;;;;;6.30;99.90;;;;;;4891772;29;19916;-74
2022/09/22 03:47:08;;;;;;;;;;;6.30;99.90;;;;;;4890566;29;19912;-74
2022/09/22 03:49:34;;;;;;;;;;;6.30;99.90;;;;;;4890644;29;19923;-74
2022/09/22 03:51:59;;;;;;;;;;;6.30;99.90;;;;;;4890732;29;19919;-74
2022/09/22 03:54:25;;;;;;;;;;;6.30;99.90;;;;;;4891987;29;19983;-74
2022/09/22 03:56:51;;;;;;;;;;;6.20;99.90;;;;;;4891516;29;20111;-73
2022/09/22 03:59:16;;;;;;;;;;;6.20;99.90;;;;;;4891417;29;19934;-73
2022/09/22 04:01:42;;;;;;;;;;;6.20;99.90;;;;;;4891563;29;19915;-73
2022/09/22 04:04:08;;;;;;;;;;;6.20;99.90;;;;;;4891737;29;19953;-73
2022/09/22 04:06:34;;;;;;;;;;;6.10;99.90;;;;;;4891207;29;20365;-73
2022/09/22 04:09:00;;;;;;;;;;;6.10;99.90;;;;;;4890584;29;19911;-73
2022/09/22 04:11:26;;;;;;;;;;;6.10;99.90;;;;;;4890403;29;19916;-73
2022/09/22 04:13:52;;;;;;;;;;;6.10;99.90;;;;;;4891236;29;19975;-73
2022/09/22 04:16:18;;;;;;;;;;;6.10;99.90;;;;;;4891253;29;19986;-73
2022/09/22 04:18:44;;;;;;;;;;;6.00;99.90;;;;;;4890441;29;19952;-73
2022/09/22 04:21:09;;;;;;;;;;;6.00;99.90;;;;;;4891301;29;19923;-73
2022/09/22 04:23:35;;;;;;;;;;;6.00;99.90;;;;;;4891322;29;19978;-73
2022/09/22 04:26:01;;;;;;;;;;;6.00;99.90;;;;;;4891002;29;20151;-74
2022/09/22 04:28:27;;;;;;;;;;;6.00;99.90;;;;;;4858951;29;20118;-74
2022/09/22 04:30:53;;;;;;;;;;;5.90;99.90;;;;;;4891035;29;19912;-74
2022/09/22 04:33:19;;;;;;;;;;;5.90;99.90;;;;;;4889914;29;19918;-73
2022/09/22 04:35:46;;;;;;;;;;;5.90;99.90;;;;;;4891052;29;19919;-75
2022/09/22 04:38:13;;;;;;;;;;;5.80;99.90;;;;;;4889746;29;20027;-74
2022/09/22 04:40:39;;;;;;;;;;;5.80;99.90;;;;;;4890930;29;19915;-75
2022/09/22 04:43:04;;;;;;;;;;;5.70;99.90;;;;;;4889588;29;19935;-74
2022/09/22 04:45:30;;;;;;;;;;;5.70;99.90;;;;;;4890863;29;19912;-74
2022/09/22 04:47:56;;;;;;;;;;;5.60;99.90;;;;;;4889415;29;19918;-74
2022/09/22 04:50:22;;;;;;;;;;;5.60;99.90;;;;;;4890497;29;19915;-74
2022/09/22 04:52:49;;;;;;;;;;;5.60;99.90;;;;;;4889727;29;20307;-74
2022/09/22 04:55:15;;;;;;;;;;;5.60;99.90;;;;;;4874314;29;19985;-74
2022/09/22 04:57:41;;;;;;;;;;;5.50;99.90;;;;;;4890162;29;19916;-74
2022/09/22 05:00:08;;;;;;;;;;;5.50;99.90;;;;;;4889233;29;19912;-74
2022/09/22 05:02:34;;;;;;;;;;;5.50;99.90;;;;;;4873990;29;20272;-74
2022/09/22 05:05:00;;;;;;;;;;;5.50;99.90;;;;;;4889883;29;19912;-73
2022/09/22 05:07:26;;;;;;;;;;;5.50;99.90;;;;;;4889367;29;20211;-73
2022/09/22 05:09:51;;;;;;;;;;;5.50;99.90;;;;;;4890404;29;19960;-74
2022/09/22 05:12:19;;;;;;;;;;;5.50;99.90;;;;;;4890469;29;19944;-74
2022/09/22 05:14:45;;;;;;;;;;;5.50;99.90;;;;;;4890014;29;19911;-74
2022/09/22 05:17:10;;;;;;;;;;;5.40;99.90;;;;;;4888816;29;19911;-73
2022/09/22 05:19:36;;;;;;;;;;;5.50;99.90;;;;;;4890158;29;19994;-74
2022/09/22 05:22:02;;;;;;;;;;;5.50;99.90;;;;;;4889044;29;19922;-74
2022/09/22 05:24:27;;;;;;;;;;;5.40;99.90;;;;;;4890087;29;19919;-74
2022/09/22 05:26:53;;;;;;;;;;;5.50;99.90;;;;;;4888896;29;19952;-74
2022/09/22 05:29:18;;;;;;;;;;;5.40;99.90;;;;;;4889475;29;19912;-74
2022/09/22 05:31:47;;;;;;;;;;;5.40;99.90;;;;;;4889988;29;19943;-74
2022/09/22 05:34:13;;;;;;;;;;;5.40;99.90;;;;;;4889906;29;20318;-74
2022/09/22 05:36:38;;;;;;;;;;;5.40;99.90;;;;;;4889648;29;19920;-73
2022/09/22 05:39:04;;;;;;;;;;;5.40;99.90;;;;;;4888838;29;20209;-72
2022/09/22 05:41:30;;;;;;;;;;;5.40;99.90;;;;;;4889733;29;19922;-72
2022/09/22 05:43:55;;;;;;;;;;;5.40;99.90;;;;;;4889489;29;20170;-72
2022/09/22 05:46:21;;;;;;;;;;;5.40;99.90;;;;;;4889460;29;19919;-73
2022/09/22 05:48:46;;;;;;;;;;;5.40;99.90;;;;;;4889731;29;19995;-69
2022/09/22 05:51:12;;;;;;;;;;;5.40;99.90;;;;;;4888425;29;19923;-72
2022/09/22 05:53:38;;;;;;;;;;;5.40;99.90;;;;;;4889405;29;20185;-73
2022/09/22 05:56:04;;;;;;;;;;;5.50;99.90;;;;;;4888218;29;20134;-72
2022/09/22 05:58:29;;;;;;;;;;;5.50;99.90;;;;;;4888821;29;19943;-72
2022/09/22 06:00:56;;;;;;;;;;;5.50;99.90;;;;;;4888755;29;19916;-72
2022/09/22 06:03:22;;;;;;;;;;;5.50;99.90;;;;;;4887813;29;19920;-72
2022/09/22 06:05:48;;;;;;;;;;;5.60;99.90;;;;;;4886841;29;19918;-72
2022/09/22 06:08:13;;;;;;;;;;;5.60;99.90;;;;;;4888673;29;19919;-71
2022/09/22 06:10:39;;;;;;;;;;;5.60;99.90;;;;;;4887733;29;19918;-72
2022/09/22 06:13:06;;;;;;;;;;;5.70;99.90;;;;;;4883701;29;20088;-72
2022/09/22 06:15:35;;;;;;;;;;;5.70;99.90;;;;;;4869344;29;20043;-72
2022/09/22 06:18:01;;;;;;;;;;;5.80;99.90;;;;;;4869982;29;19912;-71
2022/09/22 06:20:27;;;;;;;;;;;5.80;99.90;;;;;;4870130;29;20156;-72
2022/09/22 06:22:53;;;;;;;;;;;5.80;99.90;;;;;;4884653;29;19950;-71
2022/09/22 06:25:19;;;;;;;;;;;5.90;99.90;;;;;;4888734;29;19912;-72
2022/09/22 06:27:45;;;;;;;;;;;5.90;99.90;;;;;;4886678;29;19912;-72
2022/09/22 06:30:12;;;;;;;;;;;5.90;99.90;;;;;;4880440;29;19915;-72
2022/09/22 06:32:38;;;;;;;;;;;6.00;99.90;;;;;;4877769;29;19998;-72
2022/09/22 06:35:07;;;;;;;;;;;6.00;99.90;;;;;;4888307;29;19976;-72
2022/09/22 06:37:32;;;;;;;;;;;6.00;99.90;;;;;;4894786;29;19975;-72
2022/09/22 06:39:58;;;;;;;;;;;6.10;99.90;;;;;;4898532;29;19911;-72
2022/09/22 06:42:24;;;;;;;;;;;6.10;99.90;;;;;;4898473;29;19940;-72
2022/09/22 06:44:50;;;;;;;;;;;6.20;99.90;;;;;;4892382;29;19983;-72
2022/09/22 06:47:15;;;;;;;;;;;6.20;99.90;;;;;;4899372;29;19922;-72
2022/09/22 06:49:41;;;;;;;;;;;6.20;99.90;;;;;;4897089;29;19986;-72
2022/09/22 06:52:11;;;;;;;;;;;6.30;99.90;;;;;;4888536;29;19920;-72
2022/09/22 06:54:39;;;;;;;;;;;6.40;99.90;;;;;;4886030;29;19920;-72
2022/09/22 06:57:05;;;;;;;;;;;6.40;99.90;;;;;;4887245;29;20214;-72
2022/09/22 06:59:30;;;;;;;;;;;6.50;99.90;;;;;;4897023;29;19998;-72
2022/09/22 07:01:56;;;;;;;;;;;6.50;99.90;;;;;;4891214;29;19987;-74
2022/09/22 07:04:22;;;;;;;;;;;6.60;99.90;;;;;;4881015;29;19920;-75
2022/09/22 07:06:49;;;;;;;;;;;6.60;99.90;;;;;;4895845;29;19919;-72
2022/09/22 07:09:15;;;;;;;;;;;6.70;99.90;;;;;;4903831;29;19926;-72
2022/09/22 07:11:40;;;;;;;;;;;6.70;99.90;;;;;;4887707;29;20119;-70
2022/09/22 07:14:07;;;;;;;;;;;6.80;99.90;;;;;;4892297;29;19915;-72
2022/09/22 07:16:32;;;;;;;;;;;6.80;99.90;;;;;;4895663;29;19946;-72
2022/09/22 07:18:58;;;;;;;;;;;6.80;99.90;;;;;;4896926;29;19911;-70
2022/09/22 07:21:26;;;;;;;;;;;6.90;99.90;;;;;;4895932;29;19915;-69
2022/09/22 07:23:54;;;;;;;;;;;6.90;99.90;;;;;;4887734;29;20312;-69
2022/09/22 07:26:27;;;;;;;;;;;7.00;99.90;;;;;;4887338;29;19984;-72
2022/09/22 07:28:53;;;;;;;;;;;7.10;99.90;;;;;;4875616;29;20118;-73
2022/09/22 07:31:19;;;;;;;;;;;7.20;99.90;;;;;;4876578;29;19983;-76
2022/09/22 07:33:45;;;;;;;;;;;7.20;99.90;;;;;;4882413;29;20210;-69
2022/09/22 07:36:13;;;;;;;;;;;7.30;99.90;;;;;;4886900;29;20135;-68
2022/09/22 07:38:39;;;;;;;;;;;7.40;99.90;;;;;;4887601;29;19943;-71
2022/09/22 07:41:07;;;;;;;;;;;7.50;99.90;;;;;;4886515;29;19950;-73
2022/09/22 07:43:33;;;;;;;;;;;7.50;99.90;;;;;;4886639;29;20122;-72
2022/09/22 07:45:59;;;;;;;;;;;7.60;99.90;;;;;;4887670;29;19920;-74
2022/09/22 07:48:41;;;;;;;;;;;7.70;99.90;;;;;;4886544;29;19950;-81
2022/09/22 07:51:11;;;;;;;;;;;7.80;99.90;;;;;;4873638;29;19923;-69
2022/09/22 07:53:41;;;;;;;;;;;7.90;99.90;;;;;;4891070;29;20281;-69
2022/09/22 07:56:12;;;;;;;;;;;8.00;99.90;;;;;;4874971;29;19916;-71
2022/09/22 07:58:45;;;;;;;;;;;8.10;99.90;;;;;;4891140;29;19916;-71
2022/09/22 08:01:11;;;;;;;;;;;8.20;99.90;;;;;;4896454;29;19981;-76
2022/09/22 08:03:38;;;;;;;;;;;8.30;99.90;;;;;;4890117;29;19919;-77
2022/09/22 08:06:09;;;;;;;;;;;8.40;99.90;;;;;;4892903;29;19971;-81
2022/09/22 08:08:51;;;;;;;;;;;8.40;99.90;;;;;;4878667;29;19956;-79
2022/09/22 08:11:17;;;;;;;;;;;8.50;99.90;;;;;;4894358;29;19923;-73
2022/09/22 08:14:06;;;;;;;;;;;8.60;99.90;;;;;;4894993;29;19912;-75
2022/09/22 08:16:38;;;;;;;;;;;8.60;99.90;;;;;;4893114;29;19959;-73
2022/09/22 08:19:14;;;;;;;;;;;8.80;99.90;;;;;;4884270;29;19919;-68
2022/09/22 08:21:44;;;;;;;;;;;8.90;99.90;;;;;;4901810;29;20121;-73
2022/09/22 08:24:11;;;;;;;;;;;8.90;99.90;;;;;;4907980;29;19945;-70
2022/09/22 08:26:43;;;;;;;;;;;9.00;99.90;;;;;;4908445;29;19983;-71
2022/09/22 08:29:08;;;;;;;;;;;9.10;99.90;;;;;;4893453;29;20003;-73
2022/09/22 08:31:34;;;;;;;;;;;9.20;99.90;;;;;;4895749;29;19920;-74
2022/09/22 08:34:00;;;;;;;;;;;9.20;99.90;;;;;;4890478;29;19911;-73
2022/09/22 08:36:29;;;;;;;;;;;9.30;99.90;;;;;;4876855;29;20072;-74
2022/09/22 08:38:57;;;;;;;;;;;9.40;99.90;;;;;;4870910;29;19919;-74
2022/09/22 08:41:37;;;;;;;;;;;9.50;99.90;;;;;;4875129;29;19922;-76
2022/09/22 08:44:05;;;;;;;;;;;9.60;99.90;;;;;;4888741;29;20214;-72
2022/09/22 08:46:36;;;;;;;;;;;9.70;99.90;;;;;;4891268;29;19916;-71
2022/09/22 08:52:15;;;;;;;;;;;9.90;99.90;;;;;;4875232;29;19931;-71
2022/09/22 08:54:41;;;;;;;;;;;10.00;99.90;;;;;;4897125;29;19918;-71
2022/09/22 08:57:43;;;;;;;;;;;10.10;99.90;;;;;;4883454;29;19951;-71
2022/09/22 09:00:12;;;;;;;;;;;10.20;99.90;;;;;;4894762;29;19923;-71
2022/09/22 09:03:00;;;;;;;;;;;10.30;99.90;;;;;;4891694;29;19916;-71
2022/09/22 09:05:38;;;;;;;;;;;10.50;99.90;;;;;;4885918;29;19922;-71
2022/09/22 09:08:32;;;;;;;;;;;10.60;99.90;;;;;;4891536;29;19923;-67
2022/09/22 09:11:00;;;;;;;;;;;10.70;99.90;;;;;;4906887;29;19982;-71
2022/09/22 09:13:41;;;;;;;;;;;10.90;99.90;;;;;;4908641;29;19918;-71
2022/09/22 09:16:31;;;;;;;;;;;11.00;99.90;;;;;;4907962;29;20138;-71
2022/09/22 09:19:10;;;;;;;;;;;11.10;99.90;;;;;;4889374;29;19934;-71
2022/09/22 09:21:36;;;;;;;;;;;11.20;99.90;;;;;;4904719;29;19915;-71
2022/09/22 09:24:04;;;;;;;;;;;11.30;99.90;;;;;;4908052;29;19923;-71
2022/09/22 09:26:29;;;;;;;;;;;11.40;99.90;;;;;;4906676;29;20209;-72
2022/09/22 09:29:00;;;;;;;;;;;11.40;99.90;;;;;;4922896;29;19912;-72
2022/09/22 09:31:42;;;;;;;;;;;11.40;99.90;;;;;;4891619;29;19982;-72
2022/09/22 09:34:12;;;;;;;;;;;11.50;99.90;;;;;;4901970;29;19912;-72
2022/09/22 09:36:40;;;;;;;;;;;11.50;99.90;;;;;;4884110;29;19978;-72
2022/09/22 09:39:28;;;;;;;;;;;11.60;99.90;;;;;;4880361;29;20585;-72
2022/09/22 09:41:54;;;;;;;;;;;11.70;99.90;;;;;;4893279;29;19920;-72
2022/09/22 09:44:28;;;;;;;;;;;11.70;99.90;;;;;;4888546;29;19982;-72
2022/09/22 09:47:16;;;;;;;;;;;11.80;99.90;;;;;;4894779;29;19915;-73
2022/09/22 09:49:42;;;;;;;;;;;11.90;99.90;;;;;;4869274;29;19924;-74
2022/09/22 09:52:11;;;;;;;;;;;12.00;99.90;;;;;;4883355;29;19912;-70
2022/09/22 09:54:38;;;;;;;;;;;12.00;99.90;;;;;;4907471;29;19969;-70
2022/09/22 09:57:08;;;;;;;;;;;12.20;99.90;;;;;;4907354;29;19912;-70
2022/09/22 10:02:30;;;;;;;;;;;12.40;99.90;;;;;;4900400;29;20241;-71
2022/09/22 10:05:01;;;;;;;;;;;12.50;99.90;;;;;;4891919;29;20165;-70
2022/09/22 10:07:29;;;;;;;;;;;12.70;99.90;;;;;;4881856;29;19930;-71
2022/09/22 10:09:55;;;;;;;;;;;12.80;99.90;;;;;;4898673;29;19987;-70
2022/09/22 10:12:28;;;;;;;;;;;13.00;99.90;;;;;;4892966;29;19922;-70
2022/09/22 10:14:55;;;;;;;;;;;13.10;99.90;;;;;;4896847;29;19911;-68
2022/09/22 10:17:25;;;;;;;;;;;13.30;99.90;;;;;;4900491;29;19959;-68
2022/09/22 10:19:51;;;;;;;;;;;13.40;99.90;;;;;;4884082;29;19979;-68
2022/09/22 10:22:26;;;;;;;;;;;13.60;99.90;;;;;;4885867;29;19998;-68
2022/09/22 10:25:02;;;;;;;;;;;13.80;99.90;;;;;;4902037;29;20211;-69
2022/09/22 10:27:29;;;;;;;;;;;14.10;99.90;;;;;;4897871;29;20230;-69
2022/09/22 10:30:10;;;;;;;;;;;14.30;99.90;;;;;;4891520;29;19924;-69
2022/09/22 10:32:36;;;;;;;;;;;14.50;99.90;;;;;;4891676;29;20155;-83
2022/09/22 10:35:28;;;;;;;;;;;14.70;99.90;;;;;;4881016;29;19986;-80
2022/09/22 10:38:00;;;;;;;;;;;14.90;99.90;;;;;;4902800;29;20221;-71
2022/09/22 10:40:34;;;;;;;;;;;15.10;99.90;;;;;;4868803;29;20409;-70
2022/09/22 10:43:00;;;;;;;;;;;15.30;99.90;;;;;;4882148;29;19930;-71
2022/09/22 10:45:44;;;;;;;;;;;15.40;99.90;;;;;;4889967;29;19932;-71
2022/09/22 10:48:42;;;;;;;;;;;15.60;99.90;;;;;;4895773;29;19915;-72
2022/09/22 10:51:14;;;;;;;;;;;15.80;99.90;;;;;;4878027;29;19939;-71
2022/09/22 10:53:57;;;;;;;;;;;16.00;99.90;;;;;;4890996;29;19915;-71
2022/09/22 10:56:36;;;;;;;;;;;16.20;99.90;;;;;;4913927;29;19916;-71
2022/09/22 10:59:20;;;;;;;;;;;16.50;99.90;;;;;;4891303;29;19924;-71
2022/09/22 11:02:11;;;;;;;;;;;16.60;99.90;;;;;;4893591;29;20158;-71
2022/09/22 11:05:07;;;;;;;;;;;16.70;99.90;;;;;;4903009;29;20454;-70
2022/09/22 11:14:13;;;;;;;;;;;16.10;99.90;;;;;;4893492;29;20234;-71
2022/09/22 11:17:21;;;;;;;;;;;15.90;99.90;;;;;;4883853;29;19983;-71
2022/09/22 11:20:22;;;;;;;;;;;15.70;99.90;;;;;;4858987;29;19919;-71
2022/09/22 11:23:02;;;;;;;;;;;15.70;99.90;;;;;;4887373;29;19927;-71
2022/09/22 11:26:01;;;;;;;;;;;15.60;99.90;;;;;;4888131;29;20201;-71
2022/09/22 11:28:49;;;;;;;;;;;15.80;99.90;;;;;;4890801;29;20221;-70
2022/09/22 11:31:43;;;;;;;;;;;16.10;99.90;;;;;;4891640;29;19919;-71
2022/09/22 11:34:16;;;;;;;;;;;16.30;99.90;;;;;;4887575;29;19947;-71
2022/09/22 11:37:27;;;;;;;;;;;16.50;99.90;;;;;;4891353;29;19919;-71
2022/09/22 11:40:02;;;;;;;;;;;16.60;99.90;;;;;;4891544;29;20106;-71
2022/09/22 11:43:08;;;;;;;;;;;16.70;99.90;;;;;;4890391;29;20226;-71
2022/09/22 11:45:33;;;;;;;;;;;16.60;99.90;;;;;;4890399;29;19956;-70
2022/09/22 11:48:14;;;;;;;;;;;16.50;99.90;;;;;;4889829;29;19947;-70
2022/09/22 11:51:10;;;;;;;;;;;16.50;99.90;;;;;;4891577;29;20206;-71
2022/09/22 11:54:01;;;;;;;;;;;16.90;99.90;;;;;;4891275;29;20024;-71
2022/09/22 11:56:45;;;;;;;;;;;17.70;99.90;;;;;;4890726;29;20015;-70
2022/09/22 11:59:42;;;;;;;;;;;18.60;99.90;;;;;;4875418;29;19911;-70
2022/09/22 12:02:27;;;;;;;;;;;19.60;99.90;;;;;;4873695;29;19916;-71
2022/09/22 12:05:08;;;;;;;;;;;20.50;99.90;;;;;;4889494;29;19911;-70
2022/09/22 12:07:43;;;;;;;;;;;21.30;97.80;;;;;;4890720;29;19911;-71
2022/09/22 12:10:15;;;;;;;;;;;22.10;94.40;;;;;;4890455;29;19935;-71
2022/09/22 12:12:42;;;;;;;;;;;22.70;85.60;;;;;;4889590;29;19919;-70
2022/09/22 12:15:47;;;;;;;;;;;23.30;78.50;;;;;;4889761;29;20111;-70
2022/09/22 12:18:21;;;;;;;;;;;23.80;75.00;;;;;;4868575;29;19911;-71
2022/09/22 12:20:49;;;;;;;;;;;24.50;63.50;;;;;;4874446;29;19923;-71
2022/09/22 12:23:22;;;;;;;;;;;25.00;64.80;;;;;;4890623;29;19912;-71
2022/09/22 12:25:50;;;;;;;;;;;25.30;60.70;;;;;;4874599;29;19915;-71
2022/09/22 12:28:18;;;;;;;;;;;25.80;53.20;;;;;;4873697;29;19952;-71
2022/09/22 12:31:11;;;;;;;;;;;26.20;53.60;;;;;;4889593;29;19912;-70
2022/09/22 12:33:38;;;;;;;;;;;26.60;51.80;;;;;;4890476;29;19920;-71
2022/09/22 12:36:05;;;;;;;;;;;27.10;48.40;;;;;;4889138;29;19915;-71
2022/09/22 12:38:31;;;;;;;;;;;27.50;44.60;;;;;;4888683;29;19922;-71
2022/09/22 12:40:58;;;;;;;;;;;27.70;43.90;;;;;;4890269;29;19924;-70
2022/09/22 12:43:24;;;;;;;;;;;28.30;44.30;;;;;;4891098;29;19918;-71
2022/09/22 12:45:50;;;;;;;;;;;28.80;45.30;;;;;;4889251;29;19912;-71
2022/09/22 12:48:18;;;;;;;;;;;28.90;42.40;;;;;;4888759;29;20103;-72
2022/09/22 12:50:44;;;;;;;;;;;28.20;40.20;;;;;;4858165;29;19916;-71
2022/09/22 12:53:21;;;;;;;;;;;27.00;41.50;;;;;;4890062;29;19943;-71
2022/09/22 12:55:53;;;;;;;;;;;25.90;43.00;;;;;;4890232;29;19919;-71
2022/09/22 12:58:19;;;;;;;;;;;25.00;48.00;;;;;;4889037;29;20171;-71
2022/09/22 13:00:45;;;;;;;;;;;24.00;50.20;;;;;;4889912;29;19923;-70
2022/09/22 13:03:26;;;;;;;;;;;23.20;48.60;;;;;;4873402;29;20003;-71
2022/09/22 13:05:52;;;;;;;;;;;22.40;51.30;;;;;;4890043;29;19927;-71
2022/09/22 13:08:21;;;;;;;;;;;21.80;55.30;;;;;;4889849;29;19971;-71
2022/09/22 13:11:10;;;;;;;;;;;21.30;58.70;;;;;;4889865;29;19992;-70
2022/09/22 13:13:35;;;;;;;;;;;20.80;62.50;;;;;;4882356;29;19916;-70
2022/09/22 13:16:13;;;;;;;;;;;20.50;62.90;;;;;;4889732;29;19912;-69
2022/09/22 13:18:59;;;;;;;;;;;20.20;64.60;;;;;;4889606;29;19912;-71
2022/09/22 13:21:27;;;;;;;;;;;20.70;70.80;;;;;;4889637;29;19999;-71
2022/09/22 13:23:53;;;;;;;;;;;21.40;64.00;;;;;;4889929;29;19926;-70
2022/09/22 13:26:45;;;;;;;;;;;21.90;56.20;;;;;;4889349;29;19912;-71
2022/09/22 13:29:14;;;;;;;;;;;23.00;58.40;;;;;;4885499;29;19922;-70
2022/09/22 13:31:53;;;;;;;;;;;23.50;49.60;;;;;;4889538;29;19935;-70
2022/09/22 13:34:26;;;;;;;;;;;23.20;49.70;;;;;;4889468;29;20196;-70
2022/09/22 13:36:54;;;;;;;;;;;23.40;51.40;;;;;;4889430;29;19935;-71
2022/09/22 13:39:21;;;;;;;;;;;24.50;51.20;;;;;;4873141;29;20241;-71
2022/09/22 13:42:18;;;;;;;;;;;25.90;40.50;;;;;;4888111;29;19931;-70
2022/09/22 13:44:46;;;;;;;;;;;27.20;40.50;;;;;;4884875;29;19916;-71
2022/09/22 13:47:30;;;;;;;;;;;28.90;36.60;;;;;;4872570;29;19920;-70
2022/09/22 13:50:04;;;;;;;;;;;30.30;34.30;;;;;;4887640;29;20001;-71
2022/09/22 13:52:30;;;;;;;;;;;31.60;30.60;;;;;;4888004;29;19918;-71
2022/09/22 13:54:58;;;;;;;;;;;32.10;30.30;;;;;;4889349;29;20161;-71
2022/09/22 13:57:27;;;;;;;;;;;32.40;29.50;;;;;;4887148;29;20261;-71
2022/09/22 13:59:52;;;;;;;;;;;32.80;30.00;;;;;;4872710;29;20000;-71
2022/09/22 14:02:21;;;;;;;;;;;33.40;30.00;;;;;;4887760;29;20211;-71
2022/09/22 14:04:51;;;;;;;;;;;33.90;29.90;;;;;;4888829;29;20223;-71
2022/09/22 14:07:19;;;;;;;;;;;34.40;29.90;;;;;;4888686;29;19920;-70
2022/09/22 14:09:44;;;;;;;;;;;35.00;28.80;;;;;;4887844;29;19919;-71
2022/09/22 14:12:10;;;;;;;;;;;35.50;27.40;;;;;;4888372;29;19912;-72
2022/09/22 14:14:36;;;;;;;;;;;35.80;26.30;;;;;;4888714;29;19912;-71
2022/09/22 14:17:17;;;;;;;;;;;36.10;26.00;;;;;;4887513;29;20205;-71
2022/09/22 14:20:09;;;;;;;;;;;36.40;25.80;;;;;;4873132;29;20279;-71
2022/09/22 14:22:39;;;;;;;;;;;36.90;24.00;;;;;;4885893;29;19990;-71
2022/09/22 14:25:06;;;;;;;;;;;37.20;23.30;;;;;;4887660;29;20245;-72
2022/09/22 14:27:35;;;;;;;;;;;37.30;23.30;;;;;;4887566;29;19958;-69
2022/09/22 14:30:00;;;;;;;;;;;37.40;23.70;;;;;;4888361;29;20087;-69
2022/09/22 14:32:37;;;;;;;;;;;37.40;23.90;;;;;;4887497;29;19971;-70
2022/09/22 14:35:05;;;;;;;;;;;37.60;24.20;;;;;;4871913;29;20167;-69
2022/09/22 14:37:41;;;;;;;;;;;37.50;23.60;;;;;;4871813;29;19912;-69
2022/09/22 14:40:19;;;;;;;;;;;37.50;24.00;;;;;;4887574;29;19927;-69
2022/09/22 14:43:07;;;;;;;;;;;37.40;23.70;;;;;;4887772;29;19923;-70
2022/09/22 14:45:34;;;;;;;;;;;37.30;24.10;;;;;;4888451;29;20029;-69
2022/09/22 14:48:16;;;;;;;;;;;37.40;24.00;;;;;;4887193;29;19911;-70
2022/09/22 14:50:59;;;;;;;;;;;37.30;24.00;;;;;;4888071;29;19922;-70
2022/09/22 14:53:28;;;;;;;;;;;37.50;22.50;;;;;;4887587;29;20207;-68
2022/09/22 14:55:59;;;;;;;;;;;37.20;21.30;;;;;;4887178;29;19912;-69
2022/09/22 14:58:26;;;;;;;;;;;36.60;22.00;;;;;;4872043;29;19919;-70
2022/09/22 15:03:41;;;;;;;;;;;35.80;23.00;;;;;;4890880;29;20217;-69
2022/09/22 15:06:11;;;;;;;;;;;34.70;23.20;;;;;;4891911;29;20234;-69